Time;durP1;ratioP1;P1;durP2;ratioP2;P2;SDS_P1;SDS_P2;PMS_P1;PMS_P2;Temp;Humidity;BMP_temperature;BMP_pressure;BME280_temperature;BME280_humidity;BME280_pressure;Samples;Min_cycle;Max_cycle;Signal;HPM_P1;HPM_P2
2022/05/16 00:03:09;;;;;;;0.00;0.00;;;;;;;-145.06;100.00;63404.56;10403305;28;20477;-64
2022/05/16 00:08:10;;;;;;;0.00;0.00;;;;;;;-145.06;100.00;63404.56;10411735;28;20021;-62
2022/05/16 00:13:10;;;;;;;0.00;0.00;;;;;;;-145.06;100.00;63404.56;10411851;28;20025;-61
2022/05/16 00:18:10;;;;;;;0.00;0.00;;;;;;;-145.06;100.00;63404.56;10411577;28;20488;-63
2022/05/16 00:23:11;;;;;;;0.08;0.08;;;;;;;-145.06;100.00;63404.56;10398125;28;20277;-61
2022/05/16 00:28:11;;;;;;;0.00;0.00;;;;;;;-145.06;100.00;63404.56;10411119;28;20357;-62
2022/05/16 00:33:11;;;;;;;0.00;0.00;;;;;;;-145.06;100.00;63404.56;10376921;28;20299;-62
2022/05/16 00:38:12;;;;;;;0.00;0.00;;;;;;;-145.06;100.00;63404.56;10368942;28;20134;-62
2022/05/16 00:43:13;;;;;;;0.00;0.00;;;;;;;-145.06;100.00;63404.56;10393606;28;20388;-63
2022/05/16 00:48:13;;;;;;;0.00;0.00;;;;;;;-145.06;100.00;63404.56;10410119;28;20284;-64
2022/05/16 00:53:13;;;;;;;0.00;0.00;;;;;;;-145.06;100.00;63404.56;10397010;28;20491;-64
2022/05/16 00:58:16;;;;;;;0.00;0.00;;;;;;;-145.06;100.00;63404.56;10410342;28;20439;-63
2022/05/16 01:08:43;;;;;;;0.00;0.00;;;;;;;-145.06;100.00;63404.56;10398597;28;20025;-64
2022/05/16 01:13:44;;;;;;;0.00;0.00;;;;;;;-145.06;100.00;63404.56;10368258;28;20079;-61
2022/05/16 01:18:44;;;;;;;0.00;0.00;;;;;;;-145.06;100.00;63404.56;10376721;28;20072;-62
2022/05/16 01:24:14;;;;;;;0.00;0.00;;;;;;;-145.06;100.00;63404.56;10401235;28;20037;-62
2022/05/16 01:29:14;;;;;;;0.00;0.00;;;;;;;-145.06;100.00;63404.56;10407769;28;20029;-64
2022/05/16 01:34:15;;;;;;;0.00;0.00;;;;;;;-145.06;100.00;63404.56;10408340;28;20025;-64
2022/05/16 01:39:16;;;;;;;0.00;0.00;;;;;;;-145.06;100.00;63404.56;10408604;28;20021;-62
2022/05/16 01:44:16;;;;;;;0.00;0.00;;;;;;;-145.06;100.00;63404.56;10408048;28;20365;-62
2022/05/16 01:49:16;;;;;;;0.00;0.00;;;;;;;-145.06;100.00;63404.56;10398414;28;20026;-63
2022/05/16 01:54:17;;;;;;;0.00;0.00;;;;;;;-145.06;100.00;63404.56;10389490;28;20031;-62
2022/05/16 01:59:17;;;;;;;0.00;0.00;;;;;;;-145.06;100.00;63404.56;10370419;28;20013;-64
2022/05/16 02:04:17;;;;;;;0.00;0.00;;;;;;;-145.06;100.00;63404.56;10367001;28;20108;-63
2022/05/16 02:09:18;;;;;;;0.00;0.00;;;;;;;-145.06;100.00;63404.56;10367078;28;20771;-64
2022/05/16 02:14:18;;;;;;;0.00;0.00;;;;;;;-145.06;100.00;63404.56;10367253;28;20104;-64
2022/05/16 02:19:18;;;;;;;0.00;0.00;;;;;;;-145.06;100.00;63404.56;10365551;28;20018;-64
2022/05/16 02:29:38;;;;;;;0.00;0.00;;;;;;;-145.06;100.00;63404.56;10377991;28;20026;-64
2022/05/16 02:34:39;;;;;;;0.00;0.00;;;;;;;-145.06;100.00;63404.56;10406869;28;20472;-64
2022/05/16 02:39:44;;;;;;;0.00;0.00;;;;;;;-145.06;100.00;63404.56;10407366;28;20025;-62
2022/05/16 02:44:45;;;;;;;0.00;0.00;;;;;;;-145.06;100.00;63404.56;10406814;28;20104;-63
2022/05/16 02:49:45;;;;;;;0.00;0.00;;;;;;;-145.06;100.00;63404.56;10396061;28;20112;-63
2022/05/16 02:54:46;;;;;;;0.00;0.00;;;;;;;-145.06;100.00;63404.56;10402808;28;20464;-63
2022/05/16 02:59:46;;;;;;;0.00;0.00;;;;;;;-145.06;100.00;63404.56;10406905;28;20266;-60
2022/05/16 03:04:47;;;;;;;0.00;0.00;;;;;;;-145.06;100.00;63404.56;10412845;28;20060;-61
2022/05/16 03:09:47;;;;;;;0.00;0.00;;;;;;;-145.06;100.00;63404.56;10390524;28;20400;-63
2022/05/16 03:14:47;;;;;;;0.00;0.00;;;;;;;-145.06;100.00;63404.56;10373389;28;20030;-63
2022/05/16 03:19:48;;;;;;;0.00;0.00;;;;;;;-145.06;100.00;63404.56;10391697;28;20387;-64
2022/05/16 03:24:48;;;;;;;0.00;0.00;;;;;;;-145.06;100.00;63404.56;10409179;28;20025;-64
2022/05/16 03:29:49;;;;;;;0.00;0.00;;;;;;;-145.06;100.00;63404.56;10413932;28;20044;-63
2022/05/16 03:34:53;;;;;;;0.00;0.00;;;;;;;-145.06;100.00;63404.56;10412478;28;20049;-63
2022/05/16 03:45:12;;;;;;;0.00;0.00;;;;;;;-145.06;100.00;63404.56;10401648;28;20033;-64
2022/05/16 03:50:14;;;;;;;0.00;0.00;;;;;;;-145.06;100.00;63404.56;10377884;28;20469;-64
2022/05/16 03:55:16;;;;;;;0.00;0.00;;;;;;;-145.06;100.00;63404.56;10409765;28;20025;-64
2022/05/16 04:00:17;;;;;;;0.00;0.00;;;;;;;-145.06;100.00;63404.56;10377728;28;20018;-64
2022/05/16 04:05:20;;;;;;;0.00;0.00;;;;;;;-145.06;100.00;63404.56;10372252;28;20022;-64
2022/05/16 04:10:20;;;;;;;0.00;0.00;;;;;;;-145.06;100.00;63404.56;10371492;28;20087;-64
2022/05/16 04:15:22;;;;;;;0.00;0.00;;;;;;;-145.06;100.00;63404.56;10371052;28;20079;-64
2022/05/16 04:20:23;;;;;;;0.00;0.00;;;;;;;-145.06;100.00;63404.56;10369807;28;20017;-64
2022/05/16 04:25:23;;;;;;;0.10;0.10;;;;;;;-145.06;100.00;63404.56;10388465;28;20029;-65
2022/05/16 04:30:23;;;;;;;0.10;0.10;;;;;;;-145.06;100.00;63404.56;10389702;28;20424;-64
2022/05/16 04:35:25;;;;;;;0.07;0.07;;;;;;;-145.06;100.00;63404.56;10358452;28;20275;-62
2022/05/16 04:40:25;;;;;;;0.20;0.20;;;;;;;-145.06;100.00;63404.56;10380437;28;20021;-64
2022/05/16 04:45:28;;;;;;;0.00;0.00;;;;;;;-145.06;100.00;63404.56;10395387;28;20388;-65
2022/05/16 04:50:34;;;;;;;0.10;0.10;;;;;;;-145.06;100.00;63404.56;10387104;28;20300;-61
2022/05/16 04:55:34;;;;;;;0.10;0.10;;;;;;;-145.06;100.00;63404.56;10393957;28;20026;-65
2022/05/16 05:00:35;;;;;;;0.10;0.10;;;;;;;-145.06;100.00;63404.56;10392046;28;20113;-64
2022/05/16 05:05:35;;;;;;;0.00;0.00;;;;;;;-145.06;100.00;63404.56;10390122;28;20018;-65
2022/05/16 05:16:06;;;;;;;0.10;0.10;;;;;;;-145.06;100.00;63404.56;10400953;28;20431;-63
2022/05/16 05:21:07;;;;;;;0.10;0.10;;;;;;;-145.06;100.00;63404.56;10389193;28;20014;-62
2022/05/16 05:26:09;;;;;;;0.10;0.10;;;;;;;-145.06;100.00;63404.56;10389385;28;20022;-64
2022/05/16 05:31:25;;;;;;;0.10;0.10;;;;;;;-145.06;100.00;63404.56;10382869;28;20087;-64
2022/05/16 05:36:34;;;;;;;0.10;0.10;;;;;;;-145.06;100.00;63404.56;10340684;28;20416;-65
2022/05/16 05:41:35;;;;;;;0.00;0.00;;;;;;;-145.06;100.00;63404.56;10349709;28;20020;-64
2022/05/16 05:46:37;;;;;;;0.00;0.00;;;;;;;-145.06;100.00;63404.56;10348466;28;20771;-65
2022/05/16 05:51:37;;;;;;;0.00;0.00;;;;;;;-145.06;100.00;63404.56;10350910;28;20018;-64
2022/05/16 05:56:37;;;;;;;0.00;0.00;;;;;;;-145.06;100.00;63404.56;10352631;28;20108;-64
2022/05/16 06:01:38;;;;;;;0.00;0.00;;;;;;;-145.06;100.00;63404.56;10338025;28;20021;-64
2022/05/16 06:06:40;;;;;;;0.10;0.10;;;;;;;-145.06;100.00;63404.56;10348737;28;20309;-64
2022/05/16 06:11:41;;;;;;;0.00;0.00;;;;;;;-145.06;100.00;63404.56;10351361;28;20037;-64
2022/05/16 06:16:41;;;;;;;0.00;0.00;;;;;;;-145.06;100.00;63404.56;10357237;28;20022;-63
2022/05/16 06:21:41;;;;;;;0.10;0.10;;;;;;;-145.06;100.00;63404.56;10350811;28;20034;-64
2022/05/16 06:26:41;;;;;;;0.10;0.10;;;;;;;-145.06;100.00;63404.56;10344588;28;20026;-64
2022/05/16 06:31:42;;;;;;;0.00;0.00;;;;;;;-145.06;100.00;63404.56;10342694;28;20062;-64
2022/05/16 06:36:43;;;;;;;0.10;0.10;;;;;;;-145.06;100.00;63404.56;10348391;28;20029;-64
2022/05/16 06:41:43;;;;;;;0.10;0.10;;;;;;;-145.06;100.00;63404.56;10362611;28;20037;-64
2022/05/16 06:46:46;;;;;;;0.10;0.10;;;;;;;-145.06;100.00;63404.56;10347716;28;20041;-64
2022/05/16 06:51:46;;;;;;;0.00;0.00;;;;;;;-145.06;100.00;63404.56;10364283;28;20034;-65
2022/05/16 06:56:47;;;;;;;0.00;0.00;;;;;;;-145.06;100.00;63404.56;10365041;28;20113;-65
2022/05/16 07:01:47;;;;;;;0.00;0.00;;;;;;;-145.06;100.00;63404.56;10356494;28;20028;-64
2022/05/16 07:06:47;;;;;;;0.10;0.10;;;;;;;-145.06;100.00;63404.56;10356255;28;20064;-64
2022/05/16 07:11:47;;;;;;;0.10;0.10;;;;;;;-145.06;100.00;63404.56;10353907;28;20412;-64
2022/05/16 07:16:48;;;;;;;0.10;0.10;;;;;;;-145.06;100.00;63404.56;10353430;28;20025;-65
2022/05/16 07:21:48;;;;;;;0.00;0.00;;;;;;;-145.06;100.00;63404.56;10352839;28;20022;-65
2022/05/16 07:32:11;;;;;;;0.10;0.10;;;;;;;-145.06;100.00;63404.56;10350375;28;20030;-65
2022/05/16 07:37:11;;;;;;;0.10;0.10;;;;;;;-145.06;100.00;63404.56;10352634;28;20014;-65
2022/05/16 07:42:12;;;;;;;0.10;0.10;;;;;;;-145.06;100.00;63404.56;10358878;28;20030;-65
2022/05/16 07:47:12;;;;;;;0.00;0.00;;;;;;;-145.06;100.00;63404.56;10365029;28;20477;-66
2022/05/16 07:52:12;;;;;;;0.00;0.00;;;;;;;-145.06;100.00;63404.56;10347161;28;20026;-66
2022/05/16 07:57:12;;;;;;;0.10;0.10;;;;;;;-145.06;100.00;63404.56;10352316;28;20030;-65
2022/05/16 08:02:13;;;;;;;0.00;0.00;;;;;;;-145.06;100.00;63404.56;10346498;28;20023;-66
2022/05/16 08:07:14;;;;;;;0.10;0.10;;;;;;;-145.06;100.00;63404.56;10360887;28;20022;-66
2022/05/16 08:12:30;;;;;;;0.00;0.00;;;;;;;-145.06;100.00;63404.56;10353184;28;20409;-66
2022/05/16 08:17:31;;;;;;;0.00;0.00;;;;;;;-145.06;100.00;63404.56;10354155;28;20105;-66
2022/05/16 08:22:33;;;;;;;0.00;0.00;;;;;;;-145.06;100.00;63404.56;10356244;28;20022;-66
2022/05/16 08:27:33;;;;;;;0.10;0.10;;;;;;;-145.06;100.00;63404.56;10360805;28;20037;-66
2022/05/16 08:32:34;;;;;;;0.10;0.10;;;;;;;-145.06;100.00;63404.56;10347759;28;20048;-66
2022/05/16 08:43:02;;;;;;;0.05;0.05;;;;;;;-145.06;100.00;63404.56;10358323;28;20520;-66
2022/05/16 08:48:17;;;;;;;0.10;0.10;;;;;;;-145.06;100.00;63404.56;10351272;28;20428;-66
2022/05/16 08:53:31;;;;;;;0.10;0.10;;;;;;;-145.06;100.00;63404.56;10346537;28;20114;-66
2022/05/16 08:58:40;;;;;;;0.00;0.00;;;;;;;-145.06;100.00;63404.56;10351151;28;20032;-66
2022/05/16 09:03:48;;;;;;;0.10;0.10;;;;;;;-145.06;100.00;63404.56;10346845;28;20030;-66
2022/05/16 09:08:56;;;;;;;0.08;0.08;;;;;;;-145.06;100.00;63404.56;10348579;28;20028;-66
2022/05/16 09:14:04;;;;;;;0.00;0.00;;;;;;;-145.06;100.00;63404.56;10350761;28;20032;-66
2022/05/16 09:19:42;;;;;;;0.00;0.00;;;;;;;-145.06;100.00;63404.56;10341937;28;20388;-66
2022/05/16 09:24:55;;;;;;;0.00;0.00;;;;;;;-145.06;100.00;63404.56;10350290;28;20041;-66
2022/05/16 09:29:55;;;;;;;0.10;0.10;;;;;;;-145.06;100.00;63404.56;10347561;28;20030;-67
2022/05/16 09:34:56;;;;;;;0.00;0.00;;;;;;;-145.06;100.00;63404.56;10350372;28;20017;-67
2022/05/16 09:39:56;;;;;;;0.10;0.10;;;;;;;-145.06;100.00;63404.56;10344077;28;20040;-67
2022/05/16 09:45:02;;;;;;;0.00;0.00;;;;;;;-145.06;100.00;63404.56;10345509;28;20262;-66
2022/05/16 09:50:02;;;;;;;0.00;0.00;;;;;;;-145.06;100.00;63404.56;10346543;28;20025;-67
2022/05/16 09:55:06;;;;;;;0.10;0.10;;;;;;;-145.06;100.00;63404.56;10347096;28;20026;-67
2022/05/16 10:00:31;;;;;;;0.10;0.10;;;;;;;-145.06;100.00;63404.56;10328994;28;20524;-67
2022/05/16 10:05:32;;;;;;;0.10;0.10;;;;;;;-145.06;100.00;63404.56;10348010;28;20022;-67
2022/05/16 10:10:39;;;;;;;0.00;0.00;;;;;;;-145.06;100.00;63404.56;10345744;28;20022;-67
2022/05/16 10:15:40;;;;;;;0.00;0.00;;;;;;;-145.06;100.00;63404.56;10350966;28;20026;-67
2022/05/16 10:20:46;;;;;;;0.00;0.00;;;;;;;-145.06;100.00;63404.56;10342920;28;20473;-67
2022/05/16 10:25:48;;;;;;;0.00;0.00;;;;;;;-145.06;100.00;63404.56;10345263;28;20071;-67
2022/05/16 10:36:16;;;;;;;0.00;0.00;;;;;;;-145.06;100.00;63404.56;10345173;28;20059;-67
2022/05/16 10:41:26;;;;;;;0.10;0.10;;;;;;;-145.06;100.00;63404.56;10349187;28;20381;-67
2022/05/16 10:46:31;;;;;;;0.00;0.00;;;;;;;-145.06;100.00;63404.56;10355805;28;20080;-67
2022/05/16 10:51:52;;;;;;;0.08;0.08;;;;;;;-145.06;100.00;63404.56;10339390;28;20366;-67
2022/05/16 10:57:25;;;;;;;0.08;0.08;;;;;;;-145.06;100.00;63404.56;10340163;28;20018;-67
2022/05/16 11:02:34;;;;;;;0.00;0.00;;;;;;;-145.06;100.00;63404.56;10359920;28;20373;-67
2022/05/16 11:07:50;;;;;;;0.00;0.00;;;;;;;-145.06;100.00;63404.56;10336254;28;20033;-67
2022/05/16 11:13:05;;;;;;;0.00;0.00;;;;;;;-145.06;100.00;63404.56;10340315;28;20481;-67
2022/05/16 11:18:41;;;;;;;0.00;0.00;;;;;;;-145.06;100.00;63404.56;10348051;28;20428;-67
2022/05/16 11:23:56;;;;;;;0.00;0.00;;;;;;;-145.06;100.00;63404.56;10355810;28;20057;-67
2022/05/16 11:29:17;;;;;;;0.10;0.10;;;;;;;-145.06;100.00;63404.56;10358836;28;20044;-67
2022/05/16 11:34:55;;;;;;;0.10;0.10;;;;;;;-145.06;100.00;63404.56;10379946;22;20458;-65
2022/05/16 11:40:16;;;;;;;0.00;0.00;;;;;;;-145.06;100.00;63404.56;10413121;28;20379;-65
2022/05/16 11:45:45;;;;;;;0.10;0.10;;;;;;;-145.06;100.00;63404.56;10403809;28;20021;-65
2022/05/16 11:50:50;;;;;;;0.00;0.00;;;;;;;-145.06;100.00;63404.56;10391562;28;20502;-65
2022/05/16 12:01:39;;;;;;;0.00;0.00;;;;;;;-145.06;100.00;63404.56;10326406;28;20485;-66
2022/05/16 12:06:42;;;;;;;0.00;0.00;;;;;;;-145.06;100.00;63404.56;10362598;28;20038;-66
2022/05/16 12:12:11;;;;;;;0.00;0.00;;;;;;;-145.06;100.00;63404.56;10377822;28;20025;-65
2022/05/16 12:17:14;;;;;;;0.00;0.00;;;;;;;-145.06;100.00;63404.56;10363817;28;20030;-65
2022/05/16 12:22:31;;;;;;;0.00;0.00;;;;;;;-145.06;100.00;63404.56;10411834;28;20026;-65
2022/05/16 12:27:32;;;;;;;0.10;0.10;;;;;;;-145.06;100.00;63404.56;10370180;28;20029;-65
2022/05/16 12:32:33;;;;;;;0.10;0.10;;;;;;;-145.06;100.00;63404.56;10371024;28;20440;-65
2022/05/16 12:37:36;;;;;;;0.00;0.00;;;;;;;-145.06;100.00;63404.56;10387717;28;20033;-65
2022/05/16 12:42:55;;;;;;;0.00;0.00;;;;;;;-145.06;100.00;63404.56;10412809;28;20071;-65
2022/05/16 12:48:30;;;;;;;0.00;0.00;;;;;;;-145.06;100.00;63404.56;10370345;28;20029;-65
2022/05/16 12:53:48;;;;;;;0.00;0.00;;;;;;;-145.06;100.00;63404.56;10408581;28;20373;-65
2022/05/16 12:59:00;;;;;;;0.00;0.00;;;;;;;-145.06;100.00;63404.56;10369390;28;20032;-65
2022/05/16 13:04:20;;;;;;;0.00;0.00;;;;;;;-145.06;100.00;63404.56;10369298;28;20116;-65
2022/05/16 13:10:02;;;;;;;0.00;0.00;;;;;;;-145.06;100.00;63404.56;10410360;28;20033;-65
2022/05/16 13:15:09;;;;;;;0.00;0.00;;;;;;;-145.06;100.00;63404.56;10404423;28;20079;-65
2022/05/16 13:20:18;;;;;;;0.10;0.10;;;;;;;-145.06;100.00;63404.56;10409707;28;20033;-65
2022/05/16 13:25:21;;;;;;;0.00;0.00;;;;;;;-145.06;100.00;63404.56;10409373;28;20032;-66
2022/05/16 13:30:23;;;;;;;0.10;0.10;;;;;;;-145.06;100.00;63404.56;10409773;28;20030;-66
2022/05/16 13:35:31;;;;;;;0.00;0.00;;;;;;;-145.06;100.00;63404.56;10408845;28;20071;-66
2022/05/16 13:40:38;;;;;;;0.00;0.00;;;;;;;-145.06;100.00;63404.56;10407550;28;20024;-66
2022/05/16 13:45:38;;;;;;;0.10;0.10;;;;;;;-145.06;100.00;63404.56;10408425;28;20812;-66
2022/05/16 13:50:41;;;;;;;0.00;0.00;;;;;;;-145.06;100.00;63404.56;10407267;28;20021;-66
2022/05/16 13:55:47;;;;;;;0.10;0.10;;;;;;;-145.06;100.00;63404.56;10407811;28;20025;-66
2022/05/16 14:01:11;;;;;;;0.00;0.00;;;;;;;-145.06;100.00;63404.56;10408700;28;20017;-66
2022/05/16 14:06:11;;;;;;;0.10;0.10;;;;;;;-145.06;100.00;63404.56;10376472;28;20480;-66
2022/05/16 14:11:15;;;;;;;0.10;0.10;;;;;;;-145.06;100.00;63404.56;10368027;28;20068;-66
2022/05/16 14:16:19;;;;;;;0.05;0.05;;;;;;;-145.06;100.00;63404.56;10367921;28;20041;-65
2022/05/16 14:21:34;;;;;;;0.10;0.10;;;;;;;-145.06;100.00;63404.56;10391287;28;20380;-66
2022/05/16 14:26:34;;;;;;;0.10;0.10;;;;;;;-145.06;100.00;63404.56;10406139;28;20025;-66
2022/05/16 14:31:44;;;;;;;0.10;0.10;;;;;;;-145.06;100.00;63404.56;10407674;28;20071;-66
2022/05/16 14:36:46;;;;;;;0.00;0.00;;;;;;;-145.06;100.00;63404.56;10365631;28;20377;-66
2022/05/16 14:42:29;;;;;;;0.00;0.00;;;;;;;-145.06;100.00;63404.56;10369251;28;20093;-66
2022/05/16 14:47:32;;;;;;;0.00;0.00;;;;;;;-145.06;100.00;63404.56;10399848;28;20384;-66
2022/05/16 14:52:33;;;;;;;0.00;0.00;;;;;;;-145.06;100.00;63404.56;10406198;28;20025;-64
2022/05/16 14:57:34;;;;;;;0.00;0.00;;;;;;;-145.06;100.00;63404.56;10408369;28;20032;-66
2022/05/16 15:07:54;;;;;;;0.00;0.00;;;;;;;-145.06;100.00;63404.56;10413747;28;20052;-66
2022/05/16 15:12:54;;;;;;;0.10;0.10;;;;;;;-145.06;100.00;63404.56;10414620;28;20456;-65
2022/05/16 15:17:54;;;;;;;0.00;0.00;;;;;;;-145.06;100.00;63404.56;10413662;28;20044;-65
2022/05/16 15:22:55;;;;;;;0.10;0.10;;;;;;;-145.06;100.00;63404.56;10411035;28;20555;-65
2022/05/16 15:27:55;;;;;;;0.00;0.00;;;;;;;-145.06;100.00;63404.56;10411620;28;20484;-65
2022/05/16 15:32:55;;;;;;;0.00;0.00;;;;;;;-145.06;100.00;63404.56;10412969;28;20287;-65
2022/05/16 15:37:56;;;;;;;0.00;0.00;;;;;;;-145.06;100.00;63404.56;10413832;28;20021;-65
2022/05/16 15:42:56;;;;;;;0.00;0.00;;;;;;;-145.06;100.00;63404.56;10413964;28;20021;-65
2022/05/16 15:47:57;;;;;;;0.00;0.00;;;;;;;-145.06;100.00;63404.56;10413119;28;20021;-65
2022/05/16 15:52:58;;;;;;;0.10;0.10;;;;;;;-145.06;100.00;63404.56;10412816;28;20071;-65
2022/05/16 15:57:58;;;;;;;0.00;0.00;;;;;;;-145.06;100.00;63404.56;10411973;28;20075;-65
2022/05/16 16:03:01;;;;;;;0.00;0.00;;;;;;;-145.06;100.00;63404.56;10413239;28;20100;-65
2022/05/16 16:13:20;;;;;;;0.00;0.00;;;;;;;-145.06;100.00;63404.56;10413073;28;20021;-65
2022/05/16 16:18:22;;;;;;;0.00;0.00;;;;;;;-145.06;100.00;63404.56;10410787;28;20022;-65
2022/05/16 16:23:24;;;;;;;0.00;0.00;;;;;;;-145.06;100.00;63404.56;10412630;28;20122;-65
2022/05/16 16:28:24;;;;;;;0.00;0.00;;;;;;;-145.06;100.00;63404.56;10370637;28;20028;-65
2022/05/16 16:33:27;;;;;;;0.10;0.10;;;;;;;-145.06;100.00;63404.56;10370685;28;20109;-64
2022/05/16 16:38:28;;;;;;;;;;;;;;;-145.06;100.00;63404.56;10371381;28;20029;-65
2022/05/16 16:43:36;;;;;;;0.00;0.00;;;;;;;-145.06;100.00;63404.56;10375540;28;20277;-64
2022/05/16 16:48:37;;;;;;;0.10;0.10;;;;;;;-145.06;100.00;63404.56;10373411;28;20540;-65
2022/05/16 16:58:56;;;;;;;0.00;0.00;;;;;;;-145.06;100.00;63404.56;10408208;28;20033;-64
2022/05/16 17:03:57;;;;;;;0.10;0.10;;;;;;;-145.06;100.00;63404.56;10409240;28;20076;-64
2022/05/16 17:08:58;;;;;;;0.10;0.10;;;;;;;-145.06;100.00;63404.56;10412111;28;20037;-64
2022/05/16 17:13:58;;;;;;;0.10;0.10;;;;;;;-145.06;100.00;63404.56;10393297;28;20025;-65
2022/05/16 17:18:58;;;;;;;0.10;0.10;;;;;;;-145.06;100.00;63404.56;10411383;28;20454;-64
2022/05/16 17:23:58;;;;;;;0.10;0.10;;;;;;;-145.06;100.00;63404.56;10409808;28;20026;-64
2022/05/16 17:28:59;;;;;;;0.00;0.00;;;;;;;-145.06;100.00;63404.56;10411249;28;20036;-65
2022/05/16 17:34:00;;;;;;;0.00;0.00;;;;;;;-145.06;100.00;63404.56;10409834;28;20037;-64
2022/05/16 17:39:02;;;;;;;0.10;0.10;;;;;;;-145.06;100.00;63404.56;10406203;22;20048;-67
2022/05/16 17:44:04;;;;;;;0.10;0.10;;;;;;;-145.06;100.00;63404.56;10410169;28;20476;-67
2022/05/16 17:49:04;;;;;;;0.10;0.10;;;;;;;-145.06;100.00;63404.56;10404153;28;20464;-67
2022/05/16 17:54:13;;;;;;;0.10;0.10;;;;;;;-145.06;100.00;63404.56;10409218;28;20037;-67
2022/05/16 17:59:15;;;;;;;0.13;0.13;;;;;;;-145.06;100.00;63404.56;10409847;28;20151;-67
2022/05/16 18:04:17;;;;;;;0.10;0.10;;;;;;;-145.06;100.00;63404.56;10409930;28;20380;-67
2022/05/16 18:09:18;;;;;;;0.10;0.10;;;;;;;-145.06;100.00;63404.56;10409554;28;20021;-67
2022/05/16 18:14:19;;;;;;;0.10;0.10;;;;;;;-145.06;100.00;63404.56;10408622;28;20065;-67
2022/05/16 18:19:20;;;;;;;0.10;0.10;;;;;;;-145.06;100.00;63404.56;10402414;28;20057;-67
2022/05/16 18:24:20;;;;;;;0.10;0.10;;;;;;;-145.06;100.00;63404.56;10408287;28;20537;-67
2022/05/16 18:29:21;;;;;;;0.10;0.10;;;;;;;-145.06;100.00;63404.56;10409442;28;20022;-67
2022/05/16 18:34:22;;;;;;;0.10;0.10;;;;;;;-145.06;100.00;63404.56;10415980;28;20029;-67
2022/05/16 18:39:23;;;;;;;0.10;0.10;;;;;;;-145.06;100.00;63404.56;10417566;28;20025;-67
2022/05/16 18:55:04;;;;;;;0.10;0.10;;;;;;;-145.06;100.00;63404.56;10416171;28;20544;-67
2022/05/16 19:00:09;;;;;;;0.10;0.10;;;;;;;-145.06;100.00;63404.56;10416905;28;20017;-67
2022/05/16 19:05:11;;;;;;;0.10;0.10;;;;;;;-145.06;100.00;63404.56;10416220;28;20044;-67
2022/05/16 19:10:12;;;;;;;0.10;0.10;;;;;;;-145.06;100.00;63404.56;10416063;28;20029;-67
2022/05/16 19:15:15;;;;;;;0.10;0.10;;;;;;;-145.06;100.00;63404.56;10415827;28;20471;-67
2022/05/16 19:20:17;;;;;;;0.10;0.10;;;;;;;-145.06;100.00;63404.56;10408841;28;20024;-67
2022/05/16 19:25:20;;;;;;;0.03;0.03;;;;;;;-145.06;100.00;63404.56;10414629;28;20034;-67
2022/05/16 19:35:39;;;;;;;0.10;0.10;;;;;;;-145.06;100.00;63404.56;10415263;28;20053;-67
2022/05/16 19:40:41;;;;;;;0.05;0.05;;;;;;;-145.06;100.00;63404.56;10415480;28;20021;-67
2022/05/16 19:45:44;;;;;;;0.10;0.10;;;;;;;-145.06;100.00;63404.56;10413894;28;20029;-67
2022/05/16 19:50:46;;;;;;;0.10;0.10;;;;;;;-145.06;100.00;63404.56;10407207;28;20033;-66
2022/05/16 19:55:47;;;;;;;0.10;0.10;;;;;;;-145.06;100.00;63404.56;10413187;28;20087;-67
2022/05/16 20:00:48;;;;;;;0.10;0.10;;;;;;;-145.06;100.00;63404.56;10414551;28;20025;-67
2022/05/16 20:05:49;;;;;;;0.10;0.10;;;;;;;-145.06;100.00;63404.56;10414034;28;20477;-66
2022/05/16 20:10:49;;;;;;;0.13;0.13;;;;;;;-145.06;100.00;63404.56;10414024;28;20029;-66
2022/05/16 20:15:49;;;;;;;0.10;0.10;;;;;;;-145.06;100.00;63404.56;10413556;28;20275;-67
2022/05/16 20:20:50;;;;;;;0.10;0.10;;;;;;;-145.06;100.00;63404.56;10406748;28;20025;-66
2022/05/16 20:25:51;;;;;;;0.10;0.10;;;;;;;-145.06;100.00;63404.56;10410790;28;20029;-67
2022/05/16 20:30:55;;;;;;;0.10;0.10;;;;;;;-145.06;100.00;63404.56;10411208;28;20286;-67
2022/05/16 20:35:56;;;;;;;0.10;0.10;;;;;;;-145.06;100.00;63404.56;10412557;28;20033;-66
2022/05/16 20:41:02;;;;;;;0.10;0.10;;;;;;;-145.06;100.00;63404.56;10412827;28;20120;-67
2022/05/16 20:46:03;;;;;;;0.10;0.10;;;;;;;-145.06;100.00;63404.56;10411956;28;20507;-66
2022/05/16 20:51:04;;;;;;;0.10;0.10;;;;;;;-145.06;100.00;63404.56;10411708;28;20021;-66
2022/05/16 20:56:04;;;;;;;0.10;0.10;;;;;;;-145.06;100.00;63404.56;10411076;28;20108;-66
2022/05/16 21:01:05;;;;;;;0.10;0.10;;;;;;;-145.06;100.00;63404.56;10411464;28;20495;-66
2022/05/16 21:06:05;;;;;;;0.10;0.10;;;;;;;-145.06;100.00;63404.56;10411449;28;20384;-66
2022/05/16 21:11:06;;;;;;;0.10;0.10;;;;;;;-145.06;100.00;63404.56;10411736;28;20032;-67
2022/05/16 21:16:06;;;;;;;0.10;0.10;;;;;;;-145.06;100.00;63404.56;10411032;28;20032;-66
2022/05/16 21:21:06;;;;;;;0.10;0.10;;;;;;;-145.06;100.00;63404.56;10411499;28;20022;-66
2022/05/16 21:26:07;;;;;;;0.10;0.10;;;;;;;-145.06;100.00;63404.56;10411450;28;20025;-66
2022/05/16 21:31:07;;;;;;;0.10;0.10;;;;;;;-145.06;100.00;63404.56;10410437;28;20076;-66
2022/05/16 21:36:08;;;;;;;0.10;0.10;;;;;;;-145.06;100.00;63404.56;10409150;28;20106;-66
2022/05/16 21:41:09;;;;;;;0.10;0.10;;;;;;;-145.06;100.00;63404.56;10409055;28;20104;-66
2022/05/16 21:46:09;;;;;;;0.10;0.10;;;;;;;-145.06;100.00;63404.56;10408305;28;20395;-67
2022/05/16 21:51:10;;;;;;;0.10;0.10;;;;;;;-145.06;100.00;63404.56;10409200;28;20021;-66
2022/05/16 21:56:11;;;;;;;0.10;0.10;;;;;;;-145.06;100.00;63404.56;10406082;28;20279;-66
2022/05/16 22:01:11;;;;;;;0.10;0.10;;;;;;;-145.06;100.00;63404.56;10406597;28;20017;-66
2022/05/16 22:06:11;;;;;;;0.00;0.00;;;;;;;-145.06;100.00;63404.56;10407684;28;20056;-65
2022/05/16 22:11:12;;;;;;;0.10;0.10;;;;;;;-145.06;100.00;63404.56;10408052;28;20017;-66
2022/05/16 22:16:12;;;;;;;0.10;0.10;;;;;;;-145.06;100.00;63404.56;10406829;28;20036;-65
2022/05/16 22:21:13;;;;;;;0.10;0.10;;;;;;;-145.06;100.00;63404.56;10408633;28;20024;-65
2022/05/16 22:26:13;;;;;;;0.10;0.10;;;;;;;-145.06;100.00;63404.56;10406828;28;20018;-65
2022/05/16 22:31:13;;;;;;;0.10;0.10;;;;;;;-145.06;100.00;63404.56;10405891;28;20487;-65
2022/05/16 22:36:14;;;;;;;0.00;0.00;;;;;;;-145.06;100.00;63404.56;10407096;28;20484;-65
2022/05/16 22:41:15;;;;;;;0.10;0.10;;;;;;;-145.06;100.00;63404.56;10408894;28;20024;-65
2022/05/16 22:46:15;;;;;;;0.10;0.10;;;;;;;-145.06;100.00;63404.56;10406718;28;20326;-64
2022/05/16 22:51:15;;;;;;;0.10;0.10;;;;;;;-145.06;100.00;63404.56;10407544;28;20013;-64
2022/05/16 22:56:16;;;;;;;0.10;0.10;;;;;;;-145.06;100.00;63404.56;10407011;28;20037;-65
2022/05/16 23:01:16;;;;;;;0.10;0.10;;;;;;;-145.06;100.00;63404.56;10405181;28;20024;-65
2022/05/16 23:06:16;;;;;;;0.10;0.10;;;;;;;-145.06;100.00;63404.56;10406543;28;20102;-64
2022/05/16 23:11:16;;;;;;;0.10;0.10;;;;;;;-145.06;100.00;63404.56;10407195;28;20032;-65
2022/05/16 23:16:17;;;;;;;0.10;0.10;;;;;;;-145.06;100.00;63404.56;10406300;28;20026;-65
2022/05/16 23:21:18;;;;;;;0.10;0.10;;;;;;;-145.06;100.00;63404.56;10413203;28;20128;-65
2022/05/16 23:26:18;;;;;;;0.10;0.10;;;;;;;-145.06;100.00;63404.56;10414117;28;20459;-65
2022/05/16 23:31:18;;;;;;;0.10;0.10;;;;;;;-145.06;100.00;63404.56;10412670;28;20021;-65
2022/05/16 23:36:21;;;;;;;0.10;0.10;;;;;;;-145.06;100.00;63404.56;10413783;22;20038;-65
2022/05/16 23:41:21;;;;;;;0.10;0.10;;;;;;;-145.06;100.00;63404.56;10375340;28;20026;-65
2022/05/16 23:46:21;;;;;;;0.10;0.10;;;;;;;-145.06;100.00;63404.56;10374978;28;20030;-66
2022/05/16 23:51:22;;;;;;;0.10;0.10;;;;;;;-145.06;100.00;63404.56;10375060;28;20281;-65
2022/05/16 23:56:23;;;;;;;0.13;0.13;;;;;;;-145.06;100.00;63404.56;10375480;28;20477;-65
